sensor_id;sensor_type;location;lat;lon;timestamp;pressure;altitude;pressure_sealevel;temperature;humidity
3598;BME280;1813;52.016;8.714;2023-08-31T00:00:24;-16261.94;;;-139.71;88.02
3598;BME280;1813;52.016;8.714;2023-08-31T00:03:00;-16261.94;;;-139.71;87.95
3598;BME280;1813;52.016;8.714;2023-08-31T00:05:37;-16261.94;;;-139.71;88.03
3598;BME280;1813;52.016;8.714;2023-08-31T00:08:15;-16261.94;;;-139.71;87.99
3598;BME280;1813;52.016;8.714;2023-08-31T00:10:56;-16261.94;;;-139.71;87.96
3598;BME280;1813;52.016;8.714;2023-08-31T00:13:31;-16261.94;;;-139.71;88.03
3598;BME280;1813;52.016;8.714;2023-08-31T00:16:09;-16261.94;;;-139.71;87.75
3598;BME280;1813;52.016;8.714;2023-08-31T00:18:45;-16261.94;;;-139.71;87.62
3598;BME280;1813;52.016;8.714;2023-08-31T00:21:21;-16261.94;;;-139.71;87.55
3598;BME280;1813;52.016;8.714;2023-08-31T00:24:04;-16261.94;;;-139.71;87.45
3598;BME280;1813;52.016;8.714;2023-08-31T00:26:40;-16261.94;;;-139.71;87.43
3598;BME280;1813;52.016;8.714;2023-08-31T00:29:15;-16261.94;;;-139.71;87.37
3598;BME280;1813;52.016;8.714;2023-08-31T00:31:55;-16261.94;;;-139.71;87.17
3598;BME280;1813;52.016;8.714;2023-08-31T00:34:31;-16261.94;;;-139.71;86.95
3598;BME280;1813;52.016;8.714;2023-08-31T00:37:07;-16261.94;;;-139.71;86.84
3598;BME280;1813;52.016;8.714;2023-08-31T00:39:46;-16261.94;;;-139.71;87.14
3598;BME280;1813;52.016;8.714;2023-08-31T00:42:25;-16261.94;;;-139.71;87.10
3598;BME280;1813;52.016;8.714;2023-08-31T00:45:03;-16261.94;;;-139.71;87.03
3598;BME280;1813;52.016;8.714;2023-08-31T00:47:41;-16261.94;;;-139.71;87.22
3598;BME280;1813;52.016;8.714;2023-08-31T00:50:19;-16261.94;;;-139.71;87.22
3598;BME280;1813;52.016;8.714;2023-08-31T00:52:55;-16261.94;;;-139.71;87.20
3598;BME280;1813;52.016;8.714;2023-08-31T00:55:35;-16261.94;;;-139.71;87.22
3598;BME280;1813;52.016;8.714;2023-08-31T00:58:14;-16261.94;;;-139.71;87.33
3598;BME280;1813;52.016;8.714;2023-08-31T01:00:57;-16261.94;;;-139.71;87.28
3598;BME280;1813;52.016;8.714;2023-08-31T01:03:45;-16261.94;;;-139.71;87.74
3598;BME280;1813;52.016;8.714;2023-08-31T01:06:29;-16261.94;;;-139.71;87.94
3598;BME280;1813;52.016;8.714;2023-08-31T01:09:16;-16261.94;;;-139.71;88.12
3598;BME280;1813;52.016;8.714;2023-08-31T01:11:59;-16261.94;;;-139.71;87.92
3598;BME280;1813;52.016;8.714;2023-08-31T01:14:43;-16261.94;;;-139.71;87.86
3598;BME280;1813;52.016;8.714;2023-08-31T01:17:22;-16261.94;;;-139.71;87.72
3598;BME280;1813;52.016;8.714;2023-08-31T01:20:11;-16261.94;;;-139.71;87.59
3598;BME280;1813;52.016;8.714;2023-08-31T01:23:00;-16261.94;;;-139.71;87.44
3598;BME280;1813;52.016;8.714;2023-08-31T01:25:39;-16261.94;;;-139.71;87.55
3598;BME280;1813;52.016;8.714;2023-08-31T01:28:16;-16261.94;;;-139.71;87.58
3598;BME280;1813;52.016;8.714;2023-08-31T01:30:51;-16261.94;;;-139.71;87.56
3598;BME280;1813;52.016;8.714;2023-08-31T01:33:26;-16261.94;;;-139.71;87.46
3598;BME280;1813;52.016;8.714;2023-08-31T01:36:02;-16261.94;;;-139.71;87.46
3598;BME280;1813;52.016;8.714;2023-08-31T01:38:43;-16261.94;;;-139.71;87.22
3598;BME280;1813;52.016;8.714;2023-08-31T01:41:24;-16261.94;;;-139.71;87.28
3598;BME280;1813;52.016;8.714;2023-08-31T01:44:02;-16261.94;;;-139.71;86.97
3598;BME280;1813;52.016;8.714;2023-08-31T01:46:37;-16261.94;;;-139.71;86.85
3598;BME280;1813;52.016;8.714;2023-08-31T01:49:13;-16261.94;;;-139.71;86.71
3598;BME280;1813;52.016;8.714;2023-08-31T01:51:48;-16261.94;;;-139.71;86.52
3598;BME280;1813;52.016;8.714;2023-08-31T01:54:24;-16261.94;;;-139.71;86.26
3598;BME280;1813;52.016;8.714;2023-08-31T01:57:02;-16261.94;;;-139.71;86.01
3598;BME280;1813;52.016;8.714;2023-08-31T01:59:45;-16261.94;;;-139.71;85.65
3598;BME280;1813;52.016;8.714;2023-08-31T02:02:20;-16261.94;;;-139.71;85.36
3598;BME280;1813;52.016;8.714;2023-08-31T02:04:55;-16261.94;;;-139.71;85.25
3598;BME280;1813;52.016;8.714;2023-08-31T02:07:33;-16261.94;;;-139.71;85.13
3598;BME280;1813;52.016;8.714;2023-08-31T02:10:09;-16261.94;;;-139.71;84.84
3598;BME280;1813;52.016;8.714;2023-08-31T02:12:47;-16261.94;;;-139.71;84.99
3598;BME280;1813;52.016;8.714;2023-08-31T02:15:23;-16261.94;;;-139.71;84.98
3598;BME280;1813;52.016;8.714;2023-08-31T02:17:58;-16261.94;;;-139.71;84.84
3598;BME280;1813;52.016;8.714;2023-08-31T02:20:36;-16261.94;;;-139.71;84.76
3598;BME280;1813;52.016;8.714;2023-08-31T02:23:11;-16261.94;;;-139.71;85.04
3598;BME280;1813;52.016;8.714;2023-08-31T02:25:46;-16261.94;;;-139.71;85.09
3598;BME280;1813;52.016;8.714;2023-08-31T02:28:24;-16261.94;;;-139.71;85.49
3598;BME280;1813;52.016;8.714;2023-08-31T02:31:03;-16261.94;;;-139.71;85.46
3598;BME280;1813;52.016;8.714;2023-08-31T02:33:39;-16261.94;;;-139.71;85.81
3598;BME280;1813;52.016;8.714;2023-08-31T02:36:14;-16261.94;;;-139.71;86.08
3598;BME280;1813;52.016;8.714;2023-08-31T02:38:50;-16261.94;;;-139.71;86.44
3598;BME280;1813;52.016;8.714;2023-08-31T02:41:26;-16261.94;;;-139.71;86.52
3598;BME280;1813;52.016;8.714;2023-08-31T02:44:05;-16261.94;;;-139.71;86.48
3598;BME280;1813;52.016;8.714;2023-08-31T02:46:40;-16261.94;;;-139.71;86.61
3598;BME280;1813;52.016;8.714;2023-08-31T02:49:17;-16261.94;;;-139.71;86.87
3598;BME280;1813;52.016;8.714;2023-08-31T02:51:52;-16261.94;;;-139.71;86.85
3598;BME280;1813;52.016;8.714;2023-08-31T02:54:27;-16261.94;;;-139.71;86.74
3598;BME280;1813;52.016;8.714;2023-08-31T02:57:02;-16261.94;;;-139.71;86.64
3598;BME280;1813;52.016;8.714;2023-08-31T02:59:41;-16261.94;;;-139.71;86.59
3598;BME280;1813;52.016;8.714;2023-08-31T03:02:18;-16261.94;;;-139.71;86.60
3598;BME280;1813;52.016;8.714;2023-08-31T03:04:55;-16261.94;;;-139.71;86.42
3598;BME280;1813;52.016;8.714;2023-08-31T03:07:31;-16261.94;;;-139.71;86.27
3598;BME280;1813;52.016;8.714;2023-08-31T03:10:07;-16261.94;;;-139.71;86.30
3598;BME280;1813;52.016;8.714;2023-08-31T03:12:45;-16261.94;;;-139.71;86.42
3598;BME280;1813;52.016;8.714;2023-08-31T03:15:23;-16261.94;;;-139.71;86.43
3598;BME280;1813;52.016;8.714;2023-08-31T03:17:59;-16261.94;;;-139.71;86.30
3598;BME280;1813;52.016;8.714;2023-08-31T03:20:35;-16261.94;;;-139.71;86.52
3598;BME280;1813;52.016;8.714;2023-08-31T03:23:10;-16261.94;;;-139.71;86.59
3598;BME280;1813;52.016;8.714;2023-08-31T03:25:45;-16261.94;;;-139.71;86.35
3598;BME280;1813;52.016;8.714;2023-08-31T03:28:20;-16261.94;;;-139.71;86.53
3598;BME280;1813;52.016;8.714;2023-08-31T03:30:58;-16261.94;;;-139.71;86.27
3598;BME280;1813;52.016;8.714;2023-08-31T03:33:34;-16261.94;;;-139.71;86.29
3598;BME280;1813;52.016;8.714;2023-08-31T03:36:09;-16261.94;;;-139.71;86.39
3598;BME280;1813;52.016;8.714;2023-08-31T03:38:44;-16261.94;;;-139.71;86.37
3598;BME280;1813;52.016;8.714;2023-08-31T03:41:19;-16261.94;;;-139.71;86.42
3598;BME280;1813;52.016;8.714;2023-08-31T03:43:54;-16261.94;;;-139.71;86.36
3598;BME280;1813;52.016;8.714;2023-08-31T03:46:34;-16261.94;;;-139.71;86.34
3598;BME280;1813;52.016;8.714;2023-08-31T03:49:09;-16261.94;;;-139.71;86.34
3598;BME280;1813;52.016;8.714;2023-08-31T03:51:43;-16261.94;;;-139.71;86.52
3598;BME280;1813;52.016;8.714;2023-08-31T03:54:17;-16261.94;;;-139.71;86.48
3598;BME280;1813;52.016;8.714;2023-08-31T03:56:51;-16261.94;;;-139.71;86.50
3598;BME280;1813;52.016;8.714;2023-08-31T03:59:25;-16261.94;;;-139.71;86.71
3598;BME280;1813;52.016;8.714;2023-08-31T04:02:02;-16261.94;;;-139.71;86.88
3598;BME280;1813;52.016;8.714;2023-08-31T04:04:37;-16261.94;;;-139.71;87.07
3598;BME280;1813;52.016;8.714;2023-08-31T04:07:11;-16261.94;;;-139.71;87.42
3598;BME280;1813;52.016;8.714;2023-08-31T04:09:45;-16261.94;;;-139.71;87.56
3598;BME280;1813;52.016;8.714;2023-08-31T04:12:19;-16261.94;;;-139.71;87.61
3598;BME280;1813;52.016;8.714;2023-08-31T04:14:52;-16261.94;;;-139.71;87.79
3598;BME280;1813;52.016;8.714;2023-08-31T04:17:29;-16261.94;;;-139.71;87.88
3598;BME280;1813;52.016;8.714;2023-08-31T04:20:04;-16261.94;;;-139.71;87.93
3598;BME280;1813;52.016;8.714;2023-08-31T04:22:39;-16261.94;;;-139.71;88.03
3598;BME280;1813;52.016;8.714;2023-08-31T04:25:13;-16261.94;;;-139.71;88.04
3598;BME280;1813;52.016;8.714;2023-08-31T04:27:47;-16261.94;;;-139.71;88.15
3598;BME280;1813;52.016;8.714;2023-08-31T04:30:21;-16261.94;;;-139.71;88.10
3598;BME280;1813;52.016;8.714;2023-08-31T04:32:57;-16261.94;;;-139.71;88.25
3598;BME280;1813;52.016;8.714;2023-08-31T04:35:31;-16261.94;;;-139.71;88.03
3598;BME280;1813;52.016;8.714;2023-08-31T04:38:05;-16261.94;;;-139.71;88.22
3598;BME280;1813;52.016;8.714;2023-08-31T04:40:39;-16261.94;;;-139.71;87.96
3598;BME280;1813;52.016;8.714;2023-08-31T04:43:14;-16261.94;;;-139.71;88.13
3598;BME280;1813;52.016;8.714;2023-08-31T04:45:48;-16261.94;;;-139.71;88.14
3598;BME280;1813;52.016;8.714;2023-08-31T04:48:24;-16261.94;;;-139.71;88.16
3598;BME280;1813;52.016;8.714;2023-08-31T04:50:58;-16261.94;;;-139.71;88.38
3598;BME280;1813;52.016;8.714;2023-08-31T04:53:34;-16261.94;;;-139.71;88.22
3598;BME280;1813;52.016;8.714;2023-08-31T04:56:08;-16261.94;;;-139.71;88.53
3598;BME280;1813;52.016;8.714;2023-08-31T04:58:42;-16261.94;;;-139.71;88.54
3598;BME280;1813;52.016;8.714;2023-08-31T05:01:16;-16261.94;;;-139.71;88.78
3598;BME280;1813;52.016;8.714;2023-08-31T05:03:53;-16261.94;;;-139.71;88.66
3598;BME280;1813;52.016;8.714;2023-08-31T05:06:27;-16261.94;;;-139.71;88.50
3598;BME280;1813;52.016;8.714;2023-08-31T05:09:00;-16261.94;;;-139.71;88.43
3598;BME280;1813;52.016;8.714;2023-08-31T05:11:34;-16261.94;;;-139.71;88.35
3598;BME280;1813;52.016;8.714;2023-08-31T05:14:08;-16261.94;;;-139.71;88.15
3598;BME280;1813;52.016;8.714;2023-08-31T05:16:42;-16261.94;;;-139.71;88.08
3598;BME280;1813;52.016;8.714;2023-08-31T05:19:19;-16261.94;;;-139.71;88.22
3598;BME280;1813;52.016;8.714;2023-08-31T05:21:53;-16261.94;;;-139.71;88.25
3598;BME280;1813;52.016;8.714;2023-08-31T05:24:26;-16261.94;;;-139.71;88.34
3598;BME280;1813;52.016;8.714;2023-08-31T05:27:00;-16261.94;;;-139.71;88.24
3598;BME280;1813;52.016;8.714;2023-08-31T05:29:34;-16261.94;;;-139.71;87.80
3598;BME280;1813;52.016;8.714;2023-08-31T05:32:08;-16261.94;;;-139.71;87.81
3598;BME280;1813;52.016;8.714;2023-08-31T05:34:44;-16261.94;;;-139.71;87.62
3598;BME280;1813;52.016;8.714;2023-08-31T05:37:18;-16261.94;;;-139.71;87.72
3598;BME280;1813;52.016;8.714;2023-08-31T05:39:52;-16261.94;;;-139.71;87.68
3598;BME280;1813;52.016;8.714;2023-08-31T05:42:26;-16261.94;;;-139.71;87.97
3598;BME280;1813;52.016;8.714;2023-08-31T05:45:00;-16261.94;;;-139.71;88.17
3598;BME280;1813;52.016;8.714;2023-08-31T05:47:34;-16261.94;;;-139.71;88.11
3598;BME280;1813;52.016;8.714;2023-08-31T05:50:11;-16261.94;;;-139.71;88.35
3598;BME280;1813;52.016;8.714;2023-08-31T05:52:45;-16261.94;;;-139.71;88.38
3598;BME280;1813;52.016;8.714;2023-08-31T05:55:19;-16261.94;;;-139.71;88.19
3598;BME280;1813;52.016;8.714;2023-08-31T05:57:53;-16261.94;;;-139.71;88.03
3598;BME280;1813;52.016;8.714;2023-08-31T06:00:27;-16261.94;;;-139.71;87.89
3598;BME280;1813;52.016;8.714;2023-08-31T06:03:01;-16261.94;;;-139.71;87.74
3598;BME280;1813;52.016;8.714;2023-08-31T06:05:39;-16261.94;;;-139.71;87.53
3598;BME280;1813;52.016;8.714;2023-08-31T06:08:13;-16261.94;;;-139.71;87.36
3598;BME280;1813;52.016;8.714;2023-08-31T06:10:47;-16261.94;;;-139.71;87.40
3598;BME280;1813;52.016;8.714;2023-08-31T06:13:21;-16261.94;;;-139.71;87.70
3598;BME280;1813;52.016;8.714;2023-08-31T06:15:55;-16261.94;;;-139.71;88.22
3598;BME280;1813;52.016;8.714;2023-08-31T06:18:31;-16261.94;;;-139.71;88.43
3598;BME280;1813;52.016;8.714;2023-08-31T06:21:07;-16261.94;;;-139.71;88.17
3598;BME280;1813;52.016;8.714;2023-08-31T06:23:41;-16261.94;;;-139.71;87.79
3598;BME280;1813;52.016;8.714;2023-08-31T06:26:15;-16261.94;;;-139.71;87.35
3598;BME280;1813;52.016;8.714;2023-08-31T06:28:49;-16261.94;;;-139.71;87.12
3598;BME280;1813;52.016;8.714;2023-08-31T06:31:23;-16261.94;;;-139.71;86.97
3598;BME280;1813;52.016;8.714;2023-08-31T06:33:56;-16261.94;;;-139.71;86.95
3598;BME280;1813;52.016;8.714;2023-08-31T06:36:33;-16261.94;;;-139.71;87.19
3598;BME280;1813;52.016;8.714;2023-08-31T06:39:07;-16261.94;;;-139.71;87.40
3598;BME280;1813;52.016;8.714;2023-08-31T06:41:41;-16261.94;;;-139.71;87.48
3598;BME280;1813;52.016;8.714;2023-08-31T06:44:15;-16261.94;;;-139.71;86.94
3598;BME280;1813;52.016;8.714;2023-08-31T06:46:49;-16261.94;;;-139.71;86.46
3598;BME280;1813;52.016;8.714;2023-08-31T06:49:23;-16261.94;;;-139.71;86.60
3598;BME280;1813;52.016;8.714;2023-08-31T06:52:01;-16261.94;;;-139.71;86.62
3598;BME280;1813;52.016;8.714;2023-08-31T06:54:38;-16261.94;;;-139.71;86.34
3598;BME280;1813;52.016;8.714;2023-08-31T06:57:12;-16261.94;;;-139.71;86.14
3598;BME280;1813;52.016;8.714;2023-08-31T06:59:46;-16261.94;;;-139.71;86.05
3598;BME280;1813;52.016;8.714;2023-08-31T07:02:20;-16261.94;;;-139.71;85.81
3598;BME280;1813;52.016;8.714;2023-08-31T07:04:55;-16261.94;;;-139.71;85.94
3598;BME280;1813;52.016;8.714;2023-08-31T07:07:31;-16261.94;;;-139.71;86.09
3598;BME280;1813;52.016;8.714;2023-08-31T07:10:06;-16261.94;;;-139.71;86.16
3598;BME280;1813;52.016;8.714;2023-08-31T07:12:40;-16261.94;;;-139.71;86.01
3598;BME280;1813;52.016;8.714;2023-08-31T07:15:14;-16261.94;;;-139.71;85.19
3598;BME280;1813;52.016;8.714;2023-08-31T07:17:48;-16261.94;;;-139.71;84.92
3598;BME280;1813;52.016;8.714;2023-08-31T07:20:22;-16261.94;;;-139.71;85.92
3598;BME280;1813;52.016;8.714;2023-08-31T07:22:59;-16261.94;;;-139.71;86.25
3598;BME280;1813;52.016;8.714;2023-08-31T07:25:33;-16261.94;;;-139.71;85.24
3598;BME280;1813;52.016;8.714;2023-08-31T07:28:07;-16261.94;;;-139.71;83.86
3598;BME280;1813;52.016;8.714;2023-08-31T07:30:41;-16261.94;;;-139.71;81.92
3598;BME280;1813;52.016;8.714;2023-08-31T07:33:15;-16261.94;;;-139.71;80.78
3598;BME280;1813;52.016;8.714;2023-08-31T07:35:49;-16261.94;;;-139.71;81.26
3598;BME280;1813;52.016;8.714;2023-08-31T07:38:26;-16261.94;;;-139.71;81.07
3598;BME280;1813;52.016;8.714;2023-08-31T07:41:00;-16261.94;;;-139.71;80.54
3598;BME280;1813;52.016;8.714;2023-08-31T07:43:34;-16261.94;;;-139.71;78.86
3598;BME280;1813;52.016;8.714;2023-08-31T07:46:09;-16261.94;;;-139.71;78.11
3598;BME280;1813;52.016;8.714;2023-08-31T07:48:43;-16261.94;;;-139.71;78.04
3598;BME280;1813;52.016;8.714;2023-08-31T07:51:19;-16261.94;;;-139.71;77.06
3598;BME280;1813;52.016;8.714;2023-08-31T07:53:56;-16261.94;;;-139.71;76.87
3598;BME280;1813;52.016;8.714;2023-08-31T07:56:30;-16261.94;;;-139.71;77.17
3598;BME280;1813;52.016;8.714;2023-08-31T07:59:04;-16261.94;;;-139.71;77.43
3598;BME280;1813;52.016;8.714;2023-08-31T08:01:39;-16261.94;;;-139.71;78.08
3598;BME280;1813;52.016;8.714;2023-08-31T08:04:12;-16261.94;;;-139.71;78.36
3598;BME280;1813;52.016;8.714;2023-08-31T08:06:50;-16261.94;;;-139.71;78.24
3598;BME280;1813;52.016;8.714;2023-08-31T08:09:28;-16261.94;;;-139.71;78.41
3598;BME280;1813;52.016;8.714;2023-08-31T08:12:03;-16261.94;;;-139.71;78.76
3598;BME280;1813;52.016;8.714;2023-08-31T08:14:37;-16261.94;;;-139.71;78.71
3598;BME280;1813;52.016;8.714;2023-08-31T08:17:10;-16261.94;;;-139.71;78.68
3598;BME280;1813;52.016;8.714;2023-08-31T08:19:44;-16261.94;;;-139.71;79.44
3598;BME280;1813;52.016;8.714;2023-08-31T08:22:18;-16261.94;;;-139.71;80.27
3598;BME280;1813;52.016;8.714;2023-08-31T08:24:54;-16261.94;;;-139.71;80.75
3598;BME280;1813;52.016;8.714;2023-08-31T08:27:28;-16261.94;;;-139.71;80.87
3598;BME280;1813;52.016;8.714;2023-08-31T08:30:04;-16261.94;;;-139.71;81.20
3598;BME280;1813;52.016;8.714;2023-08-31T08:32:39;-16261.94;;;-139.71;81.96
3598;BME280;1813;52.016;8.714;2023-08-31T08:35:12;-16261.94;;;-139.71;82.38
3598;BME280;1813;52.016;8.714;2023-08-31T08:37:46;-16261.94;;;-139.71;82.95
3598;BME280;1813;52.016;8.714;2023-08-31T08:40:24;-16261.94;;;-139.71;83.64
3598;BME280;1813;52.016;8.714;2023-08-31T08:43:00;-16261.94;;;-139.71;84.21
3598;BME280;1813;52.016;8.714;2023-08-31T08:45:36;-16261.94;;;-139.71;84.47
3598;BME280;1813;52.016;8.714;2023-08-31T08:48:12;-16261.94;;;-139.71;84.94
3598;BME280;1813;52.016;8.714;2023-08-31T08:50:47;-16261.94;;;-139.71;84.75
3598;BME280;1813;52.016;8.714;2023-08-31T08:53:22;-16261.94;;;-139.71;84.86
3598;BME280;1813;52.016;8.714;2023-08-31T08:55:58;-16261.94;;;-139.71;85.21
3598;BME280;1813;52.016;8.714;2023-08-31T08:58:32;-16261.94;;;-139.71;86.11
3598;BME280;1813;52.016;8.714;2023-08-31T09:01:07;-16261.94;;;-139.71;85.94
3598;BME280;1813;52.016;8.714;2023-08-31T09:03:41;-16261.94;;;-139.71;84.71
3598;BME280;1813;52.016;8.714;2023-08-31T09:06:15;-16261.94;;;-139.71;84.25
3598;BME280;1813;52.016;8.714;2023-08-31T09:08:55;-16261.94;;;-139.71;83.17
3598;BME280;1813;52.016;8.714;2023-08-31T09:11:32;-16261.94;;;-139.71;82.77
3598;BME280;1813;52.016;8.714;2023-08-31T09:14:14;-16261.94;;;-139.71;82.10
3598;BME280;1813;52.016;8.714;2023-08-31T09:16:50;-16261.94;;;-139.71;81.87
3598;BME280;1813;52.016;8.714;2023-08-31T09:19:25;-16261.94;;;-139.71;81.45
3598;BME280;1813;52.016;8.714;2023-08-31T09:21:58;-16261.94;;;-139.71;80.35
3598;BME280;1813;52.016;8.714;2023-08-31T09:24:40;-16261.94;;;-139.71;79.60
3598;BME280;1813;52.016;8.714;2023-08-31T09:27:19;-16261.94;;;-139.71;79.37
3598;BME280;1813;52.016;8.714;2023-08-31T09:29:54;-16261.94;;;-139.71;78.76
3598;BME280;1813;52.016;8.714;2023-08-31T09:32:28;-16261.94;;;-139.71;78.48
3598;BME280;1813;52.016;8.714;2023-08-31T09:35:03;-16261.94;;;-139.71;76.94
3598;BME280;1813;52.016;8.714;2023-08-31T09:37:42;-16261.94;;;-139.71;74.80
3598;BME280;1813;52.016;8.714;2023-08-31T09:40:27;-16261.94;;;-139.71;72.53
3598;BME280;1813;52.016;8.714;2023-08-31T09:43:04;-16261.94;;;-139.71;70.54
3598;BME280;1813;52.016;8.714;2023-08-31T09:45:38;-16261.94;;;-139.71;70.77
3598;BME280;1813;52.016;8.714;2023-08-31T09:48:13;-16261.94;;;-139.71;70.83
3598;BME280;1813;52.016;8.714;2023-08-31T09:50:49;-16261.94;;;-139.71;70.36
3598;BME280;1813;52.016;8.714;2023-08-31T09:53:24;-16261.94;;;-139.71;70.00
3598;BME280;1813;52.016;8.714;2023-08-31T09:55:59;-16261.94;;;-139.71;69.31
3598;BME280;1813;52.016;8.714;2023-08-31T09:58:36;-16261.94;;;-139.71;67.75
3598;BME280;1813;52.016;8.714;2023-08-31T10:01:10;-16261.94;;;-139.71;68.22
3598;BME280;1813;52.016;8.714;2023-08-31T10:03:44;-16261.94;;;-139.71;66.04
3598;BME280;1813;52.016;8.714;2023-08-31T10:06:18;-16261.94;;;-139.71;65.11
3598;BME280;1813;52.016;8.714;2023-08-31T10:08:52;-16261.94;;;-139.71;63.41
3598;BME280;1813;52.016;8.714;2023-08-31T10:11:26;-16261.94;;;-139.71;62.52
3598;BME280;1813;52.016;8.714;2023-08-31T10:14:03;-16261.94;;;-139.71;65.21
3598;BME280;1813;52.016;8.714;2023-08-31T10:16:39;-16261.94;;;-139.71;63.84
3598;BME280;1813;52.016;8.714;2023-08-31T10:19:13;-16261.94;;;-139.71;63.34
3598;BME280;1813;52.016;8.714;2023-08-31T10:21:47;-16261.94;;;-139.71;62.40
3598;BME280;1813;52.016;8.714;2023-08-31T10:24:57;-16261.94;;;-139.71;61.98
3598;BME280;1813;52.016;8.714;2023-08-31T10:27:36;-16261.94;;;-139.71;63.30
3598;BME280;1813;52.016;8.714;2023-08-31T10:30:24;-16261.94;;;-139.71;64.73
3598;BME280;1813;52.016;8.714;2023-08-31T10:33:20;-16261.94;;;-139.71;65.27
3598;BME280;1813;52.016;8.714;2023-08-31T10:35:56;-16261.94;;;-139.71;65.50
3598;BME280;1813;52.016;8.714;2023-08-31T10:38:31;-16261.94;;;-139.71;65.43
3598;BME280;1813;52.016;8.714;2023-08-31T10:41:19;-16261.94;;;-139.71;66.33
3598;BME280;1813;52.016;8.714;2023-08-31T10:43:54;-16261.94;;;-139.71;64.57
3598;BME280;1813;52.016;8.714;2023-08-31T10:46:32;-16261.94;;;-139.71;63.70
3598;BME280;1813;52.016;8.714;2023-08-31T10:49:17;-16261.94;;;-139.71;64.25
3598;BME280;1813;52.016;8.714;2023-08-31T10:51:55;-16261.94;;;-139.71;66.18
3598;BME280;1813;52.016;8.714;2023-08-31T10:54:31;-16261.94;;;-139.71;63.33
3598;BME280;1813;52.016;8.714;2023-08-31T10:57:06;-16261.94;;;-139.71;64.49
3598;BME280;1813;52.016;8.714;2023-08-31T10:59:47;-16261.94;;;-139.71;63.44
3598;BME280;1813;52.016;8.714;2023-08-31T11:02:32;-16261.94;;;-139.71;63.88
3598;BME280;1813;52.016;8.714;2023-08-31T11:05:08;-16261.94;;;-139.71;64.66
3598;BME280;1813;52.016;8.714;2023-08-31T11:07:43;-16261.94;;;-139.71;64.72
3598;BME280;1813;52.016;8.714;2023-08-31T11:10:19;-16261.94;;;-139.71;64.56
3598;BME280;1813;52.016;8.714;2023-08-31T11:12:54;-16261.94;;;-139.71;63.27
3598;BME280;1813;52.016;8.714;2023-08-31T11:15:28;-16261.94;;;-139.71;62.64
3598;BME280;1813;52.016;8.714;2023-08-31T11:18:05;-16261.94;;;-139.71;62.72
3598;BME280;1813;52.016;8.714;2023-08-31T11:20:39;-16261.94;;;-139.71;63.27
3598;BME280;1813;52.016;8.714;2023-08-31T11:23:13;-16261.94;;;-139.71;62.99
3598;BME280;1813;52.016;8.714;2023-08-31T11:25:47;-16261.94;;;-139.71;61.19
3598;BME280;1813;52.016;8.714;2023-08-31T11:28:21;-16261.94;;;-139.71;60.69
3598;BME280;1813;52.016;8.714;2023-08-31T11:30:57;-16261.94;;;-139.71;62.11
3598;BME280;1813;52.016;8.714;2023-08-31T11:33:34;-16261.94;;;-139.71;61.25
3598;BME280;1813;52.016;8.714;2023-08-31T11:36:09;-16261.94;;;-139.71;61.21
3598;BME280;1813;52.016;8.714;2023-08-31T11:38:48;-16261.94;;;-139.71;61.06
3598;BME280;1813;52.016;8.714;2023-08-31T11:41:23;-16261.94;;;-139.71;57.16
3598;BME280;1813;52.016;8.714;2023-08-31T11:43:54;-16261.94;;;-139.71;56.95
3598;BME280;1813;52.016;8.714;2023-08-31T11:46:28;-16261.94;;;-139.71;55.77
3598;BME280;1813;52.016;8.714;2023-08-31T11:49:05;-16261.94;;;-139.71;54.04
3598;BME280;1813;52.016;8.714;2023-08-31T11:51:40;-16261.94;;;-139.71;52.85
3598;BME280;1813;52.016;8.714;2023-08-31T11:54:16;-16261.94;;;-139.71;54.80
3598;BME280;1813;52.016;8.714;2023-08-31T11:56:50;-16261.94;;;-139.71;56.67
3598;BME280;1813;52.016;8.714;2023-08-31T11:59:24;-16261.94;;;-139.71;58.57
3598;BME280;1813;52.016;8.714;2023-08-31T12:01:57;-16261.94;;;-139.71;60.82
3598;BME280;1813;52.016;8.714;2023-08-31T12:04:41;-16261.94;;;-139.71;62.64
3598;BME280;1813;52.016;8.714;2023-08-31T12:07:16;-16261.94;;;-139.71;64.40
3598;BME280;1813;52.016;8.714;2023-08-31T12:09:51;-16261.94;;;-139.71;66.90
3598;BME280;1813;52.016;8.714;2023-08-31T12:12:25;-16261.94;;;-139.71;69.65
3598;BME280;1813;52.016;8.714;2023-08-31T12:15:01;-16261.94;;;-139.71;72.47
3598;BME280;1813;52.016;8.714;2023-08-31T12:17:38;-16261.94;;;-139.71;72.37
3598;BME280;1813;52.016;8.714;2023-08-31T12:20:17;-16261.94;;;-139.71;70.82
3598;BME280;1813;52.016;8.714;2023-08-31T12:22:50;-16261.94;;;-139.71;71.24
3598;BME280;1813;52.016;8.714;2023-08-31T12:25:24;-16261.94;;;-139.71;73.14
3598;BME280;1813;52.016;8.714;2023-08-31T12:28:00;-16261.94;;;-139.71;71.22
3598;BME280;1813;52.016;8.714;2023-08-31T12:30:34;-16261.94;;;-139.71;68.69
3598;BME280;1813;52.016;8.714;2023-08-31T12:33:08;-16261.94;;;-139.71;67.60
3598;BME280;1813;52.016;8.714;2023-08-31T12:35:44;-16261.94;;;-139.71;68.14
3598;BME280;1813;52.016;8.714;2023-08-31T12:38:18;-16261.94;;;-139.71;68.02
3598;BME280;1813;52.016;8.714;2023-08-31T12:40:52;-16261.94;;;-139.71;67.99
3598;BME280;1813;52.016;8.714;2023-08-31T12:43:26;-16261.94;;;-139.71;68.05
3598;BME280;1813;52.016;8.714;2023-08-31T12:46:00;-16261.94;;;-139.71;67.70
3598;BME280;1813;52.016;8.714;2023-08-31T12:48:36;-16261.94;;;-139.71;72.91
3598;BME280;1813;52.016;8.714;2023-08-31T12:51:12;-16261.94;;;-139.71;75.95
3598;BME280;1813;52.016;8.714;2023-08-31T12:53:46;-16261.94;;;-139.71;75.79
3598;BME280;1813;52.016;8.714;2023-08-31T12:56:20;-16261.94;;;-139.71;75.24
3598;BME280;1813;52.016;8.714;2023-08-31T12:58:54;-16261.94;;;-139.71;71.16
3598;BME280;1813;52.016;8.714;2023-08-31T13:01:28;-16261.94;;;-139.71;69.39
3598;BME280;1813;52.016;8.714;2023-08-31T13:04:04;-16261.94;;;-139.71;68.36
3598;BME280;1813;52.016;8.714;2023-08-31T13:06:41;-16261.94;;;-139.71;69.69
3598;BME280;1813;52.016;8.714;2023-08-31T13:09:15;-16261.94;;;-139.71;70.64
3598;BME280;1813;52.016;8.714;2023-08-31T13:11:49;-16261.94;;;-139.71;69.98
3598;BME280;1813;52.016;8.714;2023-08-31T13:14:23;-16261.94;;;-139.71;68.64
3598;BME280;1813;52.016;8.714;2023-08-31T13:16:57;-16261.94;;;-139.71;69.66
3598;BME280;1813;52.016;8.714;2023-08-31T13:19:31;-16261.94;;;-139.71;71.44
3598;BME280;1813;52.016;8.714;2023-08-31T13:22:07;-16261.94;;;-139.71;72.20
3598;BME280;1813;52.016;8.714;2023-08-31T13:24:46;-16261.94;;;-139.71;73.23
3598;BME280;1813;52.016;8.714;2023-08-31T13:27:19;-16261.94;;;-139.71;72.18
3598;BME280;1813;52.016;8.714;2023-08-31T13:29:53;-16261.94;;;-139.71;70.11
3598;BME280;1813;52.016;8.714;2023-08-31T13:32:27;-16261.94;;;-139.71;70.53
3598;BME280;1813;52.016;8.714;2023-08-31T13:35:01;-16261.94;;;-139.71;69.36